createdAt,value
2022-07-31T00:00:52.387Z,69.04
2022-07-31T00:03:21.017Z,69.04
2022-07-31T00:05:49.244Z,68.95
2022-07-31T00:08:17.320Z,68.92
2022-07-31T00:10:45.405Z,68.65
2022-07-31T00:13:14.237Z,68.59
2022-07-31T00:15:42.351Z,68.70
2022-07-31T00:18:11.898Z,68.82
2022-07-31T00:20:40.008Z,68.78
2022-07-31T00:23:08.147Z,68.97
2022-07-31T00:25:39.771Z,69.21
2022-07-31T00:28:08.015Z,68.96
2022-07-31T00:30:36.427Z,69.16
2022-07-31T00:33:05.256Z,69.08
2022-07-31T00:35:34.751Z,68.74
2022-07-31T00:40:51.626Z,68.32
2022-07-31T00:43:19.750Z,68.42
2022-07-31T00:45:49.309Z,68.49
2022-07-31T00:48:27.896Z,68.45
2022-07-31T00:50:57.723Z,68.37
2022-07-31T00:53:25.898Z,68.41
2022-07-31T00:55:54.025Z,68.19
2022-07-31T00:58:22.342Z,68.13
2022-07-31T01:00:51.243Z,67.97
2022-07-31T01:03:19.844Z,67.89
2022-07-31T01:05:48.030Z,68.18
2022-07-31T01:08:17.513Z,67.99
2022-07-31T01:10:52.928Z,68.03
2022-07-31T01:13:25.629Z,67.82
2022-07-31T01:15:53.937Z,67.34
2022-07-31T01:18:22.215Z,67.58
2022-07-31T01:20:50.318Z,67.27
2022-07-31T01:23:30.192Z,67.37
2022-07-31T01:26:27.157Z,67.54
2022-07-31T01:29:11.791Z,67.19
2022-07-31T01:31:44.406Z,67.13
2022-07-31T01:34:17.418Z,67.10
2022-07-31T01:36:49.812Z,67.09
2022-07-31T01:39:18.195Z,66.66
2022-07-31T01:41:47.601Z,66.98
2022-07-31T01:44:18.745Z,67.01
2022-07-31T01:46:47.378Z,66.64
2022-07-31T01:49:17.241Z,66.52
2022-07-31T01:51:46.045Z,66.57
2022-07-31T01:54:14.341Z,66.60
2022-07-31T01:56:42.590Z,66.70
2022-07-31T01:59:15.568Z,67.03
2022-07-31T02:02:09.818Z,66.85
2022-07-31T02:04:38.435Z,66.73
2022-07-31T02:07:08.500Z,66.91
2022-07-31T02:09:37.198Z,67.00
2022-07-31T02:12:09.483Z,66.96
2022-07-31T02:14:38.756Z,66.97
2022-07-31T02:17:08.466Z,66.95
2022-07-31T02:20:07.103Z,67.00
2022-07-31T02:22:35.575Z,66.58
2022-07-31T02:25:03.801Z,66.84
2022-07-31T02:27:56.872Z,67.01
2022-07-31T02:30:20.301Z,66.72
2022-07-31T02:32:51.843Z,67.06
2022-07-31T02:35:20.167Z,67.04
2022-07-31T02:37:50.284Z,66.98
2022-07-31T02:40:18.505Z,66.90
2022-07-31T02:42:46.993Z,67.09
2022-07-31T02:45:15.344Z,67.07
2022-07-31T02:47:43.879Z,67.30
2022-07-31T02:50:20.169Z,67.65
2022-07-31T02:52:49.099Z,68.02
2022-07-31T02:55:17.684Z,67.99
2022-07-31T02:57:48.147Z,68.28
2022-07-31T03:00:22.809Z,68.52
2022-07-31T03:02:53.785Z,68.56
2022-07-31T03:05:24.630Z,68.28
2022-07-31T03:07:53.706Z,68.51
2022-07-31T03:10:22.485Z,68.78
2022-07-31T03:13:11.410Z,68.80
2022-07-31T03:15:41.714Z,69.04
2022-07-31T03:18:19.092Z,69.08
2022-07-31T03:20:51.696Z,69.25
2022-07-31T03:23:21.482Z,69.09
2022-07-31T03:25:54.741Z,69.23
2022-07-31T03:28:24.030Z,69.63
2022-07-31T03:30:56.204Z,69.84
2022-07-31T03:33:27.926Z,69.69
2022-07-31T03:35:59.113Z,70.04
2022-07-31T03:38:40.840Z,69.87
2022-07-31T03:41:19.921Z,70.32
2022-07-31T03:43:48.658Z,70.00
2022-07-31T03:46:22.765Z,70.46
2022-07-31T03:48:52.786Z,70.59
2022-07-31T03:51:23.595Z,70.72
2022-07-31T03:56:45.344Z,70.50
2022-07-31T03:59:15.491Z,70.49
2022-07-31T04:01:56.836Z,70.87
2022-07-31T04:04:45.244Z,70.41
2022-07-31T04:07:14.828Z,70.97
2022-07-31T04:09:42.964Z,70.79
2022-07-31T04:12:12.747Z,70.79
2022-07-31T04:14:41.363Z,71.01
2022-07-31T04:17:09.468Z,71.02
2022-07-31T04:19:37.997Z,71.08
2022-07-31T04:22:06.579Z,70.93
2022-07-31T04:24:36.520Z,71.20
2022-07-31T04:27:12.730Z,70.93
2022-07-31T04:29:44.933Z,71.20
2022-07-31T04:32:15.419Z,71.17
2022-07-31T04:35:05.250Z,70.94
2022-07-31T04:37:34.772Z,71.15
2022-07-31T04:40:04.860Z,71.54
2022-07-31T04:42:32.997Z,71.41
2022-07-31T04:45:01.831Z,71.22
2022-07-31T04:47:30.192Z,71.31
2022-07-31T04:49:58.697Z,71.57
2022-07-31T04:52:28.177Z,71.39
2022-07-31T04:55:01.432Z,71.84
2022-07-31T04:57:31.500Z,71.83
2022-07-31T05:00:01.395Z,71.57
2022-07-31T05:02:34.039Z,72.06
2022-07-31T05:05:02.389Z,72.05
2022-07-31T05:07:34.701Z,72.14
2022-07-31T05:10:08.321Z,71.97
2022-07-31T05:12:38.810Z,72.42
2022-07-31T05:15:08.391Z,72.67
2022-07-31T05:17:36.694Z,72.62
2022-07-31T05:20:39.569Z,72.44
2022-07-31T05:23:34.340Z,72.70
2022-07-31T05:26:10.107Z,72.28
2022-07-31T05:28:39.842Z,72.63
2022-07-31T05:31:09.145Z,72.39
2022-07-31T05:33:37.366Z,72.33
2022-07-31T05:36:05.848Z,72.71
2022-07-31T05:38:35.659Z,72.45
2022-07-31T05:41:26.902Z,72.74
2022-07-31T05:44:08.861Z,72.33
2022-07-31T05:46:40.872Z,72.51
2022-07-31T05:49:09.035Z,72.51
2022-07-31T05:51:37.598Z,72.03
2022-07-31T05:54:05.778Z,72.65
2022-07-31T05:56:52.669Z,72.23
2022-07-31T05:59:28.400Z,72.44
2022-07-31T06:01:57.102Z,72.28
2022-07-31T06:04:27.093Z,72.00
2022-07-31T06:06:55.258Z,72.36
2022-07-31T06:09:23.321Z,72.48
2022-07-31T06:11:52.143Z,72.31
2022-07-31T06:14:20.218Z,72.00
2022-07-31T06:17:08.332Z,72.59
2022-07-31T06:19:38.406Z,72.29
2022-07-31T06:22:06.871Z,72.18
2022-07-31T06:24:35.293Z,71.83
2022-07-31T06:27:06.503Z,72.17
2022-07-31T06:29:41.586Z,71.86
2022-07-31T06:32:13.303Z,71.51
2022-07-31T06:34:41.574Z,71.53
2022-07-31T06:37:09.699Z,71.87
2022-07-31T06:39:54.705Z,72.25
2022-07-31T06:42:48.738Z,72.12
2022-07-31T06:45:55.478Z,72.34
2022-07-31T06:49:08.626Z,72.33
2022-07-31T06:51:37.192Z,72.28
2022-07-31T06:54:06.904Z,72.13
2022-07-31T06:56:35.234Z,72.36
2022-07-31T06:59:03.496Z,72.80
2022-07-31T07:01:31.841Z,72.49
2022-07-31T07:03:59.954Z,72.39
2022-07-31T07:06:29.462Z,72.78
2022-07-31T07:08:57.678Z,73.02
2022-07-31T07:11:26.938Z,72.58
2022-07-31T07:13:55.398Z,73.21
2022-07-31T07:16:23.600Z,73.05
2022-07-31T07:18:51.741Z,73.32
2022-07-31T07:21:19.954Z,73.56
2022-07-31T07:23:49.668Z,73.77
2022-07-31T07:26:39.780Z,73.66
2022-07-31T07:29:10.589Z,73.60
2022-07-31T07:31:38.843Z,73.42
2022-07-31T07:34:09.261Z,73.53
2022-07-31T07:36:37.571Z,73.45
2022-07-31T07:39:14.348Z,73.31
2022-07-31T07:41:43.760Z,73.16
2022-07-31T07:44:11.926Z,73.33
2022-07-31T07:46:40.048Z,73.12
2022-07-31T07:49:09.826Z,73.32
2022-07-31T07:51:58.772Z,73.64
2022-07-31T07:54:42.865Z,73.67
2022-07-31T07:57:22.750Z,73.79
2022-07-31T08:00:10.996Z,73.69
2022-07-31T08:03:02.890Z,74.16
2022-07-31T08:05:38.472Z,73.98
2022-07-31T08:08:06.643Z,73.33
2022-07-31T08:10:50.928Z,73.22
2022-07-31T08:13:23.476Z,73.52
2022-07-31T08:16:23.604Z,73.96
2022-07-31T08:18:56.274Z,73.58
2022-07-31T08:21:25.579Z,73.66
2022-07-31T08:23:53.830Z,73.82
2022-07-31T08:26:23.587Z,74.00
2022-07-31T08:28:55.912Z,73.66
2022-07-31T08:31:26.016Z,73.93
2022-07-31T08:34:31.489Z,73.64
2022-07-31T08:37:52.310Z,73.70
2022-07-31T08:39:52.683Z,73.33
2022-07-31T08:42:22.202Z,73.17
2022-07-31T08:44:50.306Z,72.90
2022-07-31T08:47:21.006Z,72.97
2022-07-31T08:49:50.506Z,73.35
2022-07-31T08:52:19.574Z,72.93
2022-07-31T08:55:04.273Z,73.14
2022-07-31T08:57:34.471Z,73.12
2022-07-31T09:00:05.674Z,73.15
2022-07-31T09:02:40.352Z,72.84
2022-07-31T09:05:29.123Z,72.76
2022-07-31T09:08:15.015Z,72.83
2022-07-31T09:10:49.868Z,72.69
2022-07-31T09:13:22.539Z,72.83
2022-07-31T09:15:52.784Z,72.52
2022-07-31T09:18:24.773Z,72.76
2022-07-31T09:21:13.183Z,72.20
2022-07-31T09:23:45.680Z,72.28
2022-07-31T09:26:14.155Z,72.32
2022-07-31T09:28:44.514Z,72.23
2022-07-31T09:31:13.925Z,72.11
2022-07-31T09:34:07.591Z,71.99
2022-07-31T09:36:35.713Z,71.66
2022-07-31T09:39:27.151Z,71.49
2022-07-31T09:42:16.407Z,71.30
2022-07-31T09:45:02.624Z,71.60
2022-07-31T09:47:32.755Z,71.38
2022-07-31T09:50:05.649Z,71.39
2022-07-31T09:52:34.554Z,71.31
2022-07-31T09:55:15.514Z,71.31
2022-07-31T09:57:53.010Z,71.43
2022-07-31T10:00:24.195Z,71.20
2022-07-31T10:02:54.608Z,70.65
2022-07-31T10:05:24.023Z,70.87
2022-07-31T10:07:53.331Z,71.12
2022-07-31T10:10:33.891Z,71.11
2022-07-31T10:13:21.616Z,71.11
2022-07-31T10:15:51.807Z,71.01
2022-07-31T10:18:44.517Z,71.11
2022-07-31T10:21:21.422Z,71.34
2022-07-31T10:24:00.794Z,70.61
2022-07-31T10:26:57.367Z,70.79
2022-07-31T10:29:18.797Z,70.61
2022-07-31T10:31:49.788Z,71.15
2022-07-31T10:34:18.368Z,70.83
2022-07-31T10:37:12.430Z,70.79
2022-07-31T10:40:04.962Z,71.43
2022-07-31T10:42:51.608Z,71.68
2022-07-31T10:45:20.202Z,71.66
2022-07-31T10:47:58.807Z,70.99
2022-07-31T10:51:07.351Z,71.25
2022-07-31T10:53:57.629Z,71.35
2022-07-31T10:56:59.004Z,71.38
2022-07-31T10:59:45.961Z,70.86
2022-07-31T11:02:34.106Z,71.12
2022-07-31T11:05:23.584Z,70.85
2022-07-31T11:08:12.009Z,70.88
2022-07-31T11:11:06.668Z,70.89
2022-07-31T11:13:37.220Z,70.48
2022-07-31T11:16:16.338Z,70.38
2022-07-31T11:19:10.768Z,70.08
2022-07-31T11:21:41.821Z,69.98
2022-07-31T11:24:16.361Z,70.12
2022-07-31T11:26:50.600Z,69.96
2022-07-31T11:30:01.429Z,70.08
2022-07-31T11:32:16.761Z,69.98
2022-07-31T11:34:50.030Z,69.15
2022-07-31T11:37:23.344Z,68.58
2022-07-31T11:39:52.915Z,68.21
2022-07-31T11:42:26.467Z,67.79
2022-07-31T11:45:11.004Z,66.99
2022-07-31T11:48:11.674Z,66.53
2022-07-31T11:50:31.078Z,66.67
2022-07-31T11:53:07.067Z,67.13
2022-07-31T11:55:45.241Z,66.85
2022-07-31T11:58:13.779Z,66.81
2022-07-31T12:00:51.549Z,66.08
2022-07-31T12:03:20.385Z,65.40
2022-07-31T12:05:49.245Z,64.98
2022-07-31T12:08:18.862Z,64.02
2022-07-31T12:10:49.562Z,63.67
2022-07-31T12:13:20.197Z,63.46
2022-07-31T12:15:55.973Z,63.46
2022-07-31T12:18:24.193Z,62.68
2022-07-31T12:20:57.317Z,61.64
2022-07-31T12:23:40.878Z,61.06
2022-07-31T12:26:09.888Z,60.60
2022-07-31T12:28:38.039Z,60.47
2022-07-31T12:31:06.490Z,59.89
2022-07-31T12:33:41.563Z,60.43
2022-07-31T12:36:14.383Z,59.83
2022-07-31T12:38:49.076Z,59.44
2022-07-31T12:41:18.181Z,59.41
2022-07-31T12:43:51.135Z,59.62
2022-07-31T12:46:22.424Z,59.80
2022-07-31T12:48:50.859Z,60.00
2022-07-31T12:51:45.463Z,59.91
2022-07-31T12:54:10.242Z,60.24
2022-07-31T12:56:39.469Z,59.74
2022-07-31T12:59:08.091Z,59.67
2022-07-31T13:01:36.876Z,59.18
2022-07-31T13:04:07.935Z,59.54
2022-07-31T13:06:48.557Z,59.12
2022-07-31T13:09:18.454Z,59.24
2022-07-31T13:11:48.430Z,58.86
2022-07-31T13:14:19.644Z,59.41
2022-07-31T13:16:51.672Z,59.31
2022-07-31T13:19:19.887Z,59.57
2022-07-31T13:21:50.143Z,60.01
2022-07-31T13:24:20.239Z,60.01
2022-07-31T13:26:48.613Z,60.06
2022-07-31T13:29:16.791Z,60.38
2022-07-31T13:31:45.249Z,60.53
2022-07-31T13:34:13.328Z,60.83
2022-07-31T13:36:41.432Z,60.62
2022-07-31T13:39:09.536Z,60.34
2022-07-31T13:41:39.826Z,59.94
2022-07-31T13:44:09.495Z,59.23
2022-07-31T13:46:37.719Z,58.34
2022-07-31T13:49:08.713Z,57.97
2022-07-31T13:51:37.584Z,58.03
2022-07-31T13:54:05.848Z,57.73
2022-07-31T13:56:42.030Z,57.86
2022-07-31T13:59:13.344Z,57.92
2022-07-31T14:02:03.364Z,58.17
2022-07-31T14:04:32.132Z,57.92
2022-07-31T14:07:01.151Z,57.38
2022-07-31T14:09:29.309Z,56.76
2022-07-31T14:11:57.712Z,57.00
2022-07-31T14:14:27.739Z,56.52
2022-07-31T14:16:56.982Z,56.43
2022-07-31T14:19:25.129Z,55.92
2022-07-31T14:21:56.909Z,55.76
2022-07-31T14:24:25.571Z,54.81
2022-07-31T14:26:53.693Z,54.27
2022-07-31T14:29:21.982Z,54.50
2022-07-31T14:31:51.586Z,54.62
2022-07-31T14:34:19.693Z,54.35
2022-07-31T14:36:47.792Z,55.07
2022-07-31T14:39:16.018Z,55.50
2022-07-31T14:41:44.232Z,55.70
2022-07-31T14:44:12.385Z,56.27
2022-07-31T14:46:40.484Z,56.31
2022-07-31T14:49:10.257Z,56.22
2022-07-31T14:51:38.401Z,56.02
2022-07-31T14:54:06.579Z,55.92
2022-07-31T14:56:59.835Z,56.33
2022-07-31T14:59:22.895Z,56.30
2022-07-31T15:01:51.279Z,56.40
2022-07-31T15:04:20.823Z,56.37
2022-07-31T15:06:56.402Z,56.75
2022-07-31T15:09:31.254Z,57.17
2022-07-31T15:12:01.702Z,57.46
2022-07-31T15:14:30.305Z,57.88
2022-07-31T15:16:58.421Z,58.21
2022-07-31T15:19:27.954Z,58.27
2022-07-31T15:22:15.963Z,58.50
2022-07-31T15:24:49.132Z,59.08
2022-07-31T15:27:18.438Z,59.46
2022-07-31T15:30:03.517Z,59.69
2022-07-31T15:32:34.508Z,58.82
2022-07-31T15:35:04.359Z,56.75
2022-07-31T15:37:34.940Z,55.82
2022-07-31T15:40:04.750Z,56.63
2022-07-31T15:42:33.064Z,55.32
2022-07-31T15:45:01.294Z,53.50
2022-07-31T15:47:29.555Z,52.91
2022-07-31T15:49:57.641Z,52.22
2022-07-31T15:52:27.102Z,52.21
2022-07-31T15:54:55.172Z,51.96
2022-07-31T15:57:24.314Z,51.58
2022-07-31T15:59:54.246Z,51.59
2022-07-31T16:02:22.781Z,51.03
2022-07-31T16:04:53.409Z,51.32
2022-07-31T16:08:32.409Z,50.70
2022-07-31T16:10:16.385Z,50.91
2022-07-31T16:12:45.853Z,51.17
2022-07-31T16:15:14.039Z,51.72
2022-07-31T16:17:42.190Z,51.54
2022-07-31T16:20:11.879Z,52.24
2022-07-31T16:22:41.820Z,51.27
2022-07-31T16:25:10.896Z,51.20
2022-07-31T16:27:40.451Z,50.91
2022-07-31T16:30:09.197Z,50.73
2022-07-31T16:32:37.271Z,50.83
2022-07-31T16:35:06.536Z,50.49
2022-07-31T16:37:50.928Z,50.26
2022-07-31T16:40:28.609Z,49.55
2022-07-31T16:43:00.842Z,48.99
2022-07-31T16:45:29.665Z,48.72
2022-07-31T16:47:57.746Z,48.23
2022-07-31T16:50:26.022Z,48.49
2022-07-31T16:52:55.045Z,48.34
2022-07-31T16:55:46.084Z,46.04
2022-07-31T16:58:14.131Z,44.27
2022-07-31T17:00:42.322Z,44.80
2022-07-31T17:04:00.922Z,45.07
2022-07-31T17:05:58.690Z,44.70
2022-07-31T17:08:29.190Z,45.54
2022-07-31T17:10:58.085Z,46.38
2022-07-31T17:13:27.573Z,46.94
2022-07-31T17:15:55.816Z,47.73
2022-07-31T17:18:25.394Z,48.14
2022-07-31T17:20:56.258Z,48.45
2022-07-31T17:23:43.648Z,49.03
2022-07-31T17:26:21.400Z,48.92
2022-07-31T17:28:51.964Z,48.56
2022-07-31T17:31:20.182Z,47.32
2022-07-31T17:33:49.605Z,46.92
2022-07-31T17:36:29.098Z,46.05
2022-07-31T17:38:57.353Z,46.46
2022-07-31T17:41:26.162Z,46.76
2022-07-31T17:43:55.907Z,46.36
2022-07-31T17:46:29.325Z,45.17
2022-07-31T17:49:03.038Z,45.49
2022-07-31T17:51:31.166Z,44.54
2022-07-31T17:54:00.384Z,43.44
2022-07-31T17:56:28.685Z,42.74
2022-07-31T17:59:04.267Z,43.42
2022-07-31T18:01:33.511Z,43.86
2022-07-31T18:04:01.773Z,43.26
2022-07-31T18:06:29.863Z,43.65
2022-07-31T18:08:59.022Z,44.25
2022-07-31T18:11:27.230Z,44.72
2022-07-31T18:13:55.677Z,44.70
2022-07-31T18:16:30.669Z,44.09
2022-07-31T18:18:58.762Z,44.12
2022-07-31T18:21:26.891Z,44.39
2022-07-31T18:23:54.937Z,44.11
2022-07-31T18:26:23.600Z,44.13
2022-07-31T18:28:51.638Z,44.50
2022-07-31T18:31:34.583Z,45.43
2022-07-31T18:34:05.641Z,45.46
2022-07-31T18:36:33.789Z,45.99
2022-07-31T18:39:02.036Z,46.07
2022-07-31T18:41:30.239Z,46.40
2022-07-31T18:43:58.396Z,46.98
2022-07-31T18:46:26.516Z,47.49
2022-07-31T18:48:56.180Z,48.05
2022-07-31T18:51:26.124Z,48.52
2022-07-31T18:53:54.849Z,49.12
2022-07-31T18:56:23.976Z,49.61
2022-07-31T18:58:52.456Z,50.02
2022-07-31T19:01:20.888Z,50.23
2022-07-31T19:03:49.150Z,50.52
2022-07-31T19:06:17.385Z,51.33
2022-07-31T19:08:49.502Z,52.23
2022-07-31T19:11:17.881Z,52.80
2022-07-31T19:13:46.062Z,53.41
2022-07-31T19:16:15.839Z,54.10
2022-07-31T19:18:45.778Z,54.56
2022-07-31T19:21:41.494Z,55.20
2022-07-31T19:24:09.584Z,55.73
2022-07-31T19:26:38.067Z,55.82
2022-07-31T19:29:06.421Z,55.80
2022-07-31T19:31:34.585Z,55.97
2022-07-31T19:34:02.647Z,56.61
2022-07-31T19:36:30.807Z,56.79
2022-07-31T19:38:58.878Z,57.50
2022-07-31T19:41:28.561Z,57.33
2022-07-31T19:43:56.883Z,57.04
2022-07-31T19:46:24.989Z,57.50
2022-07-31T19:48:53.161Z,57.79
2022-07-31T19:51:21.347Z,57.80
2022-07-31T19:53:49.428Z,57.98
2022-07-31T19:56:20.750Z,58.44
2022-07-31T19:58:50.857Z,58.31
2022-07-31T20:01:20.208Z,58.40
2022-07-31T20:03:48.612Z,58.83
2022-07-31T20:06:16.784Z,58.86
2022-07-31T20:08:44.962Z,58.81
2022-07-31T20:11:13.439Z,58.58
2022-07-31T20:13:41.581Z,58.85
2022-07-31T20:16:11.174Z,59.07
2022-07-31T20:18:39.318Z,58.85
2022-07-31T20:21:08.821Z,58.83
2022-07-31T20:23:38.269Z,58.79
2022-07-31T20:26:06.716Z,58.43
2022-07-31T20:28:34.841Z,58.85
2022-07-31T20:31:03.049Z,58.71
2022-07-31T20:33:32.558Z,58.78
2022-07-31T20:36:00.711Z,58.85
2022-07-31T20:38:28.794Z,58.66
2022-07-31T20:40:57.083Z,58.59
2022-07-31T20:43:25.371Z,58.57
2022-07-31T20:45:53.532Z,58.81
2022-07-31T20:48:24.507Z,58.68
2022-07-31T20:50:54.333Z,59.21
2022-07-31T20:53:23.144Z,59.27
2022-07-31T20:55:51.231Z,59.02
2022-07-31T20:58:19.523Z,59.17
2022-07-31T21:00:47.961Z,59.17
2022-07-31T21:03:16.283Z,59.44
2022-07-31T21:05:44.409Z,59.26
2022-07-31T21:08:13.920Z,59.35
2022-07-31T21:10:42.085Z,59.47
2022-07-31T21:13:10.238Z,59.24
2022-07-31T21:15:43.693Z,59.19
2022-07-31T21:18:13.406Z,59.02
2022-07-31T21:20:51.615Z,59.24
2022-07-31T21:23:23.710Z,59.30
2022-07-31T21:25:52.260Z,59.21
2022-07-31T21:28:20.424Z,59.10
2022-07-31T21:30:48.789Z,59.30
2022-07-31T21:33:18.094Z,58.87
2022-07-31T21:35:47.077Z,59.23
2022-07-31T21:38:16.270Z,59.28
2022-07-31T21:40:45.946Z,59.18
2022-07-31T21:43:16.715Z,59.44
2022-07-31T21:45:54.911Z,59.32
2022-07-31T21:48:26.849Z,59.03
2022-07-31T21:50:55.506Z,59.03
2022-07-31T21:53:23.881Z,58.91
2022-07-31T21:55:53.326Z,59.39
2022-07-31T21:58:21.473Z,59.28
2022-07-31T22:00:49.647Z,59.42
2022-07-31T22:03:17.798Z,59.11
2022-07-31T22:06:02.928Z,58.93
2022-07-31T22:08:31.086Z,59.20
2022-07-31T22:11:00.539Z,58.81
2022-07-31T22:13:28.665Z,59.29
2022-07-31T22:16:00.697Z,59.47
2022-07-31T22:18:33.094Z,59.32
2022-07-31T22:21:02.094Z,59.35
2022-07-31T22:23:30.366Z,59.21
2022-07-31T22:26:00.269Z,59.52
2022-07-31T22:28:28.412Z,59.30
2022-07-31T22:30:56.557Z,59.20
2022-07-31T22:33:24.858Z,59.16
2022-07-31T22:35:58.491Z,59.25
2022-07-31T22:38:28.537Z,59.29
2022-07-31T22:40:56.699Z,59.24
2022-07-31T22:44:12.521Z,59.20
2022-07-31T22:46:14.674Z,59.22
2022-07-31T22:48:42.870Z,59.26
2022-07-31T22:51:14.583Z,59.09
2022-07-31T22:53:43.334Z,59.09
2022-07-31T22:56:11.489Z,59.19
2022-07-31T22:58:41.016Z,58.87
2022-07-31T23:01:09.115Z,58.89
2022-07-31T23:03:37.259Z,58.87
2022-07-31T23:06:31.819Z,59.14
2022-07-31T23:08:54.966Z,59.13
2022-07-31T23:11:24.564Z,59.07
2022-07-31T23:13:54.229Z,59.07
2022-07-31T23:16:22.335Z,59.00
2022-07-31T23:18:50.480Z,58.91
2022-07-31T23:21:18.804Z,58.96
2022-07-31T23:23:49.115Z,58.94
2022-07-31T23:26:18.901Z,58.99
2022-07-31T23:28:47.135Z,59.02
2022-07-31T23:31:16.849Z,59.01
2022-07-31T23:33:45.274Z,58.78
2022-07-31T23:36:13.434Z,58.78
2022-07-31T23:38:41.559Z,58.84
2022-07-31T23:41:09.901Z,58.82
2022-07-31T23:43:36.947Z,58.85
2022-07-31T23:46:05.142Z,58.92
2022-07-31T23:48:35.277Z,59.05
2022-07-31T23:51:04.359Z,59.04
2022-07-31T23:53:32.440Z,59.15
2022-07-31T23:56:00.637Z,59.03
2022-07-31T23:58:28.708Z,58.98
